Terminal Aerodrome Forecast
Issued by NWS

Home | Current Version | Previous Version | Graphics & Text | Print | Product List | Glossary On
Versions: 1 2 3 4 5 6 7 8 9 10 11 12 13 14 15 16 17 18 19 20 21 22 23 24 25 26 27 28 29 30
263
FTUS43 KGRB 171722
TAFRHI
TAF
KRHI 171722Z 1718/1818 03005KT P6SM BKN012 OVC035
      TEMPO 1718/1722 SCT012 BKN035
     FM172200 32003KT P6SM BKN035 OVC060
     FM180600 24005KT P6SM OVC020
     FM180900 24006KT P6SM SCT002 BKN050
      TEMPO 1809/1813 3SM BR
     FM181400 23009KT P6SM FEW020 BKN100=

USA.gov is the U.S. government's official web portal to all federal, state and local government web resources and services.